Bastwell, United Kingdom
Current Conditions -  °F | °C
As of 11:50 AM on Friday 19 Dec 2014 (Local Time) from EGNO Reporting Station
Rain Showers Rain Showers  
Wind Chill:   Ceiling: Unl
Heat Index:   Visibility: 5mi
Dew Point:   Wind: 22mph
Humidity: 71%   Direction: 270°W
Pressure: 29.85"   Gusts: NA
Location:  53.74°N, 2.47°W
Report Text: EGNO 191150Z 27019KT 8000 VCSH FEW019 SCT030TCU 08/03 Q1011
Loading
Personal Weather Stations






























Interactive Weather Map New forecast layout! Learn more

10-Day Weather Forecast

Advertisements
Track Severe Weather on mobile